sensor_id;sensor_type;location;lat;lon;timestamp;P1;durP1;ratioP1;P2;durP2;ratioP2
69083;SDS011;56185;48.526;9.044;2022-10-17T00:00:50;4.90;;;3.25;;
69083;SDS011;56185;48.526;9.044;2022-10-17T00:03:15;6.65;;;3.28;;
69083;SDS011;56185;48.526;9.044;2022-10-17T00:05:41;5.18;;;2.92;;
69083;SDS011;56185;48.526;9.044;2022-10-17T00:08:09;7.80;;;3.17;;
69083;SDS011;56185;48.526;9.044;2022-10-17T00:10:34;8.40;;;3.38;;
69083;SDS011;56185;48.526;9.044;2022-10-17T00:13:00;7.07;;;2.85;;
69083;SDS011;56185;48.526;9.044;2022-10-17T00:15:25;8.80;;;2.80;;
69083;SDS011;56185;48.526;9.044;2022-10-17T00:17:50;7.67;;;3.03;;
69083;SDS011;56185;48.526;9.044;2022-10-17T00:20:16;5.22;;;2.67;;
69083;SDS011;56185;48.526;9.044;2022-10-17T00:22:41;4.88;;;2.35;;
69083;SDS011;56185;48.526;9.044;2022-10-17T00:25:07;3.72;;;2.47;;
69083;SDS011;56185;48.526;9.044;2022-10-17T00:27:33;4.28;;;2.67;;
69083;SDS011;56185;48.526;9.044;2022-10-17T00:29:59;6.20;;;2.70;;
69083;SDS011;56185;48.526;9.044;2022-10-17T00:32:25;3.58;;;2.60;;
69083;SDS011;56185;48.526;9.044;2022-10-17T00:34:50;8.53;;;2.27;;
69083;SDS011;56185;48.526;9.044;2022-10-17T00:37:15;6.40;;;2.43;;
69083;SDS011;56185;48.526;9.044;2022-10-17T00:39:40;7.07;;;2.50;;
69083;SDS011;56185;48.526;9.044;2022-10-17T00:42:05;10.57;;;2.50;;
69083;SDS011;56185;48.526;9.044;2022-10-17T00:46:57;4.57;;;2.73;;
69083;SDS011;56185;48.526;9.044;2022-10-17T00:49:26;6.75;;;2.55;;
69083;SDS011;56185;48.526;9.044;2022-10-17T00:51:55;5.28;;;2.55;;
69083;SDS011;56185;48.526;9.044;2022-10-17T00:54:24;6.43;;;2.80;;
69083;SDS011;56185;48.526;9.044;2022-10-17T00:56:52;7.40;;;2.63;;
69083;SDS011;56185;48.526;9.044;2022-10-17T00:59:19;4.15;;;2.38;;
69083;SDS011;56185;48.526;9.044;2022-10-17T01:01:57;6.03;;;2.50;;
69083;SDS011;56185;48.526;9.044;2022-10-17T01:04:25;8.20;;;2.20;;
69083;SDS011;56185;48.526;9.044;2022-10-17T01:06:51;9.68;;;2.40;;
69083;SDS011;56185;48.526;9.044;2022-10-17T01:09:16;5.07;;;2.40;;
69083;SDS011;56185;48.526;9.044;2022-10-17T01:17:05;5.68;;;2.58;;
69083;SDS011;56185;48.526;9.044;2022-10-17T01:20:20;7.13;;;2.60;;
69083;SDS011;56185;48.526;9.044;2022-10-17T01:30:51;5.82;;;2.38;;
69083;SDS011;56185;48.526;9.044;2022-10-17T01:33:38;3.10;;;2.22;;
69083;SDS011;56185;48.526;9.044;2022-10-17T01:36:26;4.85;;;2.20;;
69083;SDS011;56185;48.526;9.044;2022-10-17T01:39:12;3.08;;;1.90;;
69083;SDS011;56185;48.526;9.044;2022-10-17T01:41:46;8.02;;;2.70;;
69083;SDS011;56185;48.526;9.044;2022-10-17T01:44:25;6.68;;;2.40;;
69083;SDS011;56185;48.526;9.044;2022-10-17T01:47:00;5.20;;;2.60;;
69083;SDS011;56185;48.526;9.044;2022-10-17T01:49:34;4.07;;;2.80;;
69083;SDS011;56185;48.526;9.044;2022-10-17T01:52:06;8.35;;;2.72;;
69083;SDS011;56185;48.526;9.044;2022-10-17T01:57:09;9.45;;;2.80;;
69083;SDS011;56185;48.526;9.044;2022-10-17T01:59:41;7.22;;;3.17;;
69083;SDS011;56185;48.526;9.044;2022-10-17T02:02:10;4.72;;;2.85;;
69083;SDS011;56185;48.526;9.044;2022-10-17T02:04:38;6.75;;;3.15;;
69083;SDS011;56185;48.526;9.044;2022-10-17T02:07:05;4.88;;;2.70;;
69083;SDS011;56185;48.526;9.044;2022-10-17T02:09:33;5.75;;;2.60;;
69083;SDS011;56185;48.526;9.044;2022-10-17T02:23:02;8.82;;;2.88;;
69083;SDS011;56185;48.526;9.044;2022-10-17T02:25:37;7.00;;;3.17;;
69083;SDS011;56185;48.526;9.044;2022-10-17T02:30:36;3.97;;;2.45;;
69083;SDS011;56185;48.526;9.044;2022-10-17T02:33:08;6.50;;;2.83;;
69083;SDS011;56185;48.526;9.044;2022-10-17T02:35:39;7.38;;;2.75;;
69083;SDS011;56185;48.526;9.044;2022-10-17T02:38:07;5.10;;;2.90;;
69083;SDS011;56185;48.526;9.044;2022-10-17T02:40:35;5.35;;;2.80;;
69083;SDS011;56185;48.526;9.044;2022-10-17T02:43:03;8.60;;;2.65;;
69083;SDS011;56185;48.526;9.044;2022-10-17T02:45:28;4.43;;;2.40;;
69083;SDS011;56185;48.526;9.044;2022-10-17T02:48:00;6.53;;;2.83;;
69083;SDS011;56185;48.526;9.044;2022-10-17T02:50:32;3.60;;;2.70;;
69083;SDS011;56185;48.526;9.044;2022-10-17T02:53:13;7.97;;;2.80;;
69083;SDS011;56185;48.526;9.044;2022-10-17T02:55:47;4.97;;;3.10;;
69083;SDS011;56185;48.526;9.044;2022-10-17T02:58:22;5.68;;;2.88;;
69083;SDS011;56185;48.526;9.044;2022-10-17T03:00:55;4.80;;;2.70;;
69083;SDS011;56185;48.526;9.044;2022-10-17T03:03:22;11.95;;;3.70;;
69083;SDS011;56185;48.526;9.044;2022-10-17T03:05:48;4.32;;;2.40;;
69083;SDS011;56185;48.526;9.044;2022-10-17T03:08:13;5.82;;;2.72;;
69083;SDS011;56185;48.526;9.044;2022-10-17T03:10:39;6.35;;;2.75;;
69083;SDS011;56185;48.526;9.044;2022-10-17T03:13:04;9.77;;;3.00;;
69083;SDS011;56185;48.526;9.044;2022-10-17T03:15:29;4.90;;;2.53;;
69083;SDS011;56185;48.526;9.044;2022-10-17T03:17:54;5.97;;;3.17;;
69083;SDS011;56185;48.526;9.044;2022-10-17T03:20:20;6.43;;;2.80;;
69083;SDS011;56185;48.526;9.044;2022-10-17T03:22:45;8.73;;;2.80;;
69083;SDS011;56185;48.526;9.044;2022-10-17T03:25:10;10.27;;;3.07;;
69083;SDS011;56185;48.526;9.044;2022-10-17T03:27:35;5.93;;;2.90;;
69083;SDS011;56185;48.526;9.044;2022-10-17T03:30:00;5.75;;;3.00;;
69083;SDS011;56185;48.526;9.044;2022-10-17T03:32:26;5.30;;;2.70;;
69083;SDS011;56185;48.526;9.044;2022-10-17T03:34:51;4.82;;;2.88;;
69083;SDS011;56185;48.526;9.044;2022-10-17T03:37:16;7.40;;;2.97;;
69083;SDS011;56185;48.526;9.044;2022-10-17T03:39:41;11.30;;;3.10;;
69083;SDS011;56185;48.526;9.044;2022-10-17T03:42:07;11.97;;;2.90;;
69083;SDS011;56185;48.526;9.044;2022-10-17T03:44:32;10.33;;;3.17;;
69083;SDS011;56185;48.526;9.044;2022-10-17T03:46:57;8.83;;;2.93;;
69083;SDS011;56185;48.526;9.044;2022-10-17T03:49:22;10.70;;;3.17;;
69083;SDS011;56185;48.526;9.044;2022-10-17T03:51:48;10.32;;;3.40;;
69083;SDS011;56185;48.526;9.044;2022-10-17T03:54:13;6.17;;;3.30;;
69083;SDS011;56185;48.526;9.044;2022-10-17T03:56:38;10.37;;;3.43;;
69083;SDS011;56185;48.526;9.044;2022-10-17T03:59:05;6.38;;;3.17;;
69083;SDS011;56185;48.526;9.044;2022-10-17T04:01:30;6.85;;;3.40;;
69083;SDS011;56185;48.526;9.044;2022-10-17T04:03:56;5.37;;;2.83;;
69083;SDS011;56185;48.526;9.044;2022-10-17T04:06:21;6.47;;;3.20;;
69083;SDS011;56185;48.526;9.044;2022-10-17T04:08:47;6.30;;;3.08;;
69083;SDS011;56185;48.526;9.044;2022-10-17T04:11:13;7.47;;;3.40;;
69083;SDS011;56185;48.526;9.044;2022-10-17T04:13:41;5.80;;;3.15;;
69083;SDS011;56185;48.526;9.044;2022-10-17T04:16:07;5.90;;;3.08;;
69083;SDS011;56185;48.526;9.044;2022-10-17T04:18:37;4.40;;;3.10;;
69083;SDS011;56185;48.526;9.044;2022-10-17T04:21:03;5.97;;;2.90;;
69083;SDS011;56185;48.526;9.044;2022-10-17T04:23:30;6.50;;;3.13;;
69083;SDS011;56185;48.526;9.044;2022-10-17T04:25:56;5.32;;;3.10;;
69083;SDS011;56185;48.526;9.044;2022-10-17T04:28:22;4.88;;;2.70;;
69083;SDS011;56185;48.526;9.044;2022-10-17T04:33:45;6.00;;;2.75;;
69083;SDS011;56185;48.526;9.044;2022-10-17T04:36:12;6.18;;;2.72;;
69083;SDS011;56185;48.526;9.044;2022-10-17T04:38:39;9.15;;;2.70;;
69083;SDS011;56185;48.526;9.044;2022-10-17T04:41:06;8.93;;;2.72;;
69083;SDS011;56185;48.526;9.044;2022-10-17T04:43:34;6.60;;;2.72;;
69083;SDS011;56185;48.526;9.044;2022-10-17T04:46:01;6.60;;;3.38;;
69083;SDS011;56185;48.526;9.044;2022-10-17T04:48:28;6.53;;;2.45;;
69083;SDS011;56185;48.526;9.044;2022-10-17T04:51:00;5.43;;;2.90;;
69083;SDS011;56185;48.526;9.044;2022-10-17T04:53:32;4.25;;;2.95;;
69083;SDS011;56185;48.526;9.044;2022-10-17T04:55:58;5.82;;;3.47;;
69083;SDS011;56185;48.526;9.044;2022-10-17T04:58:24;7.43;;;2.97;;
69083;SDS011;56185;48.526;9.044;2022-10-17T05:00:49;6.20;;;3.00;;
69083;SDS011;56185;48.526;9.044;2022-10-17T05:03:15;4.90;;;3.10;;
69083;SDS011;56185;48.526;9.044;2022-10-17T05:05:40;7.93;;;2.80;;
69083;SDS011;56185;48.526;9.044;2022-10-17T05:08:09;8.85;;;3.22;;
69083;SDS011;56185;48.526;9.044;2022-10-17T05:10:36;5.45;;;3.20;;
69083;SDS011;56185;48.526;9.044;2022-10-17T05:13:02;4.90;;;3.00;;
69083;SDS011;56185;48.526;9.044;2022-10-17T05:15:27;5.45;;;3.13;;
69083;SDS011;56185;48.526;9.044;2022-10-17T05:17:53;4.90;;;2.87;;
69083;SDS011;56185;48.526;9.044;2022-10-17T05:20:19;5.93;;;2.90;;
69083;SDS011;56185;48.526;9.044;2022-10-17T05:22:45;9.57;;;3.83;;
69083;SDS011;56185;48.526;9.044;2022-10-17T05:25:10;4.80;;;3.10;;
69083;SDS011;56185;48.526;9.044;2022-10-17T05:27:35;8.00;;;3.20;;
69083;SDS011;56185;48.526;9.044;2022-10-17T05:30:00;7.77;;;3.20;;
69083;SDS011;56185;48.526;9.044;2022-10-17T05:32:27;6.13;;;2.73;;
69083;SDS011;56185;48.526;9.044;2022-10-17T05:34:52;6.18;;;3.08;;
69083;SDS011;56185;48.526;9.044;2022-10-17T05:37:17;8.38;;;3.28;;
69083;SDS011;56185;48.526;9.044;2022-10-17T05:39:42;5.43;;;3.10;;
69083;SDS011;56185;48.526;9.044;2022-10-17T05:42:08;7.87;;;3.20;;
69083;SDS011;56185;48.526;9.044;2022-10-17T05:44:34;6.95;;;3.45;;
69083;SDS011;56185;48.526;9.044;2022-10-17T05:46:59;7.63;;;3.22;;
69083;SDS011;56185;48.526;9.044;2022-10-17T05:49:25;7.43;;;3.37;;
69083;SDS011;56185;48.526;9.044;2022-10-17T05:51:50;6.60;;;3.00;;
69083;SDS011;56185;48.526;9.044;2022-10-17T05:54:15;6.50;;;3.07;;
69083;SDS011;56185;48.526;9.044;2022-10-17T05:56:40;8.90;;;3.43;;
69083;SDS011;56185;48.526;9.044;2022-10-17T05:59:05;6.37;;;3.80;;
69083;SDS011;56185;48.526;9.044;2022-10-17T06:01:31;6.27;;;3.60;;
69083;SDS011;56185;48.526;9.044;2022-10-17T06:03:56;6.97;;;3.53;;
69083;SDS011;56185;48.526;9.044;2022-10-17T06:06:21;6.77;;;3.53;;
69083;SDS011;56185;48.526;9.044;2022-10-17T06:08:46;6.50;;;3.20;;
69083;SDS011;56185;48.526;9.044;2022-10-17T06:11:12;6.30;;;3.30;;
69083;SDS011;56185;48.526;9.044;2022-10-17T06:13:37;5.35;;;3.05;;
69083;SDS011;56185;48.526;9.044;2022-10-17T06:16:03;9.40;;;3.50;;
69083;SDS011;56185;48.526;9.044;2022-10-17T06:18:29;13.20;;;4.53;;
69083;SDS011;56185;48.526;9.044;2022-10-17T06:21:00;6.43;;;3.75;;
69083;SDS011;56185;48.526;9.044;2022-10-17T06:23:30;6.40;;;3.78;;
69083;SDS011;56185;48.526;9.044;2022-10-17T06:25:59;9.55;;;3.65;;
69083;SDS011;56185;48.526;9.044;2022-10-17T06:28:24;10.98;;;3.80;;
69083;SDS011;56185;48.526;9.044;2022-10-17T06:30:50;14.00;;;4.80;;
69083;SDS011;56185;48.526;9.044;2022-10-17T06:33:15;11.98;;;4.13;;
69083;SDS011;56185;48.526;9.044;2022-10-17T06:35:40;18.67;;;4.20;;
69083;SDS011;56185;48.526;9.044;2022-10-17T06:38:06;17.80;;;4.23;;
69083;SDS011;56185;48.526;9.044;2022-10-17T06:40:31;15.55;;;4.38;;
69083;SDS011;56185;48.526;9.044;2022-10-17T06:42:56;8.60;;;3.58;;
69083;SDS011;56185;48.526;9.044;2022-10-17T06:45:21;6.60;;;3.30;;
69083;SDS011;56185;48.526;9.044;2022-10-17T06:47:47;7.50;;;3.45;;
69083;SDS011;56185;48.526;9.044;2022-10-17T06:50:12;5.97;;;3.33;;
69083;SDS011;56185;48.526;9.044;2022-10-17T06:52:37;4.33;;;3.10;;
69083;SDS011;56185;48.526;9.044;2022-10-17T06:55:03;5.15;;;3.00;;
69083;SDS011;56185;48.526;9.044;2022-10-17T06:57:28;5.72;;;3.00;;
69083;SDS011;56185;48.526;9.044;2022-10-17T06:59:53;5.50;;;2.70;;
69083;SDS011;56185;48.526;9.044;2022-10-17T07:02:19;5.17;;;3.10;;
69083;SDS011;56185;48.526;9.044;2022-10-17T07:04:44;3.80;;;2.93;;
69083;SDS011;56185;48.526;9.044;2022-10-17T07:07:10;7.82;;;2.85;;
69083;SDS011;56185;48.526;9.044;2022-10-17T07:09:35;3.27;;;2.50;;
69083;SDS011;56185;48.526;9.044;2022-10-17T07:12:01;6.07;;;2.80;;
69083;SDS011;56185;48.526;9.044;2022-10-17T07:14:26;5.28;;;2.72;;
69083;SDS011;56185;48.526;9.044;2022-10-17T07:16:51;3.73;;;2.30;;
69083;SDS011;56185;48.526;9.044;2022-10-17T07:19:16;5.93;;;2.67;;
69083;SDS011;56185;48.526;9.044;2022-10-17T07:21:42;3.05;;;2.47;;
69083;SDS011;56185;48.526;9.044;2022-10-17T07:24:07;3.90;;;3.07;;
69083;SDS011;56185;48.526;9.044;2022-10-17T07:26:32;4.00;;;2.70;;
69083;SDS011;56185;48.526;9.044;2022-10-17T07:28:58;4.68;;;3.00;;
69083;SDS011;56185;48.526;9.044;2022-10-17T07:31:23;3.30;;;2.88;;
69083;SDS011;56185;48.526;9.044;2022-10-17T07:33:49;4.05;;;2.72;;
69083;SDS011;56185;48.526;9.044;2022-10-17T07:36:14;5.75;;;3.15;;
69083;SDS011;56185;48.526;9.044;2022-10-17T07:38:40;4.22;;;3.30;;
69083;SDS011;56185;48.526;9.044;2022-10-17T07:41:06;5.60;;;3.30;;
69083;SDS011;56185;48.526;9.044;2022-10-17T07:43:33;6.25;;;3.47;;
69083;SDS011;56185;48.526;9.044;2022-10-17T07:45:59;4.22;;;3.00;;
69083;SDS011;56185;48.526;9.044;2022-10-17T07:48:26;6.00;;;3.40;;
69083;SDS011;56185;48.526;9.044;2022-10-17T07:50:51;5.90;;;3.30;;
69083;SDS011;56185;48.526;9.044;2022-10-17T07:53:16;8.02;;;3.38;;
69083;SDS011;56185;48.526;9.044;2022-10-17T07:55:42;5.22;;;3.53;;
69083;SDS011;56185;48.526;9.044;2022-10-17T07:58:08;6.15;;;3.40;;
69083;SDS011;56185;48.526;9.044;2022-10-17T08:00:34;5.97;;;3.20;;
69083;SDS011;56185;48.526;9.044;2022-10-17T08:03:00;7.60;;;3.40;;
69083;SDS011;56185;48.526;9.044;2022-10-17T08:05:25;4.63;;;3.30;;
69083;SDS011;56185;48.526;9.044;2022-10-17T08:11:04;4.88;;;3.10;;
69083;SDS011;56185;48.526;9.044;2022-10-17T08:13:52;5.57;;;3.17;;
69083;SDS011;56185;48.526;9.044;2022-10-17T08:16:18;7.95;;;4.07;;
69083;SDS011;56185;48.526;9.044;2022-10-17T08:18:43;5.93;;;3.10;;
69083;SDS011;56185;48.526;9.044;2022-10-17T08:24:18;4.28;;;3.00;;
69083;SDS011;56185;48.526;9.044;2022-10-17T08:29:45;6.53;;;3.33;;
69083;SDS011;56185;48.526;9.044;2022-10-17T08:32:11;5.75;;;2.90;;
69083;SDS011;56185;48.526;9.044;2022-10-17T08:34:47;6.00;;;3.30;;
69083;SDS011;56185;48.526;9.044;2022-10-17T08:37:21;6.82;;;2.90;;
69083;SDS011;56185;48.526;9.044;2022-10-17T08:39:49;5.13;;;2.83;;
69083;SDS011;56185;48.526;9.044;2022-10-17T08:48:07;7.32;;;3.25;;
69083;SDS011;56185;48.526;9.044;2022-10-17T08:55:55;11.93;;;4.28;;
69083;SDS011;56185;48.526;9.044;2022-10-17T08:58:28;12.52;;;3.67;;
69083;SDS011;56185;48.526;9.044;2022-10-17T09:01:03;5.38;;;2.97;;
69083;SDS011;56185;48.526;9.044;2022-10-17T09:12:31;5.25;;;2.78;;
69083;SDS011;56185;48.526;9.044;2022-10-17T09:18:28;4.07;;;2.50;;
69083;SDS011;56185;48.526;9.044;2022-10-17T09:23:52;5.55;;;2.40;;
69083;SDS011;56185;48.526;9.044;2022-10-17T09:26:21;4.00;;;2.40;;
69083;SDS011;56185;48.526;9.044;2022-10-17T09:28:56;4.55;;;2.20;;
69083;SDS011;56185;48.526;9.044;2022-10-17T09:31:25;4.85;;;2.28;;
69083;SDS011;56185;48.526;9.044;2022-10-17T09:33:55;3.00;;;2.20;;
69083;SDS011;56185;48.526;9.044;2022-10-17T09:36:32;3.72;;;2.15;;
69083;SDS011;56185;48.526;9.044;2022-10-17T09:38:59;5.15;;;2.28;;
69083;SDS011;56185;48.526;9.044;2022-10-17T09:41:35;5.75;;;2.40;;
69083;SDS011;56185;48.526;9.044;2022-10-17T09:46:39;4.60;;;2.03;;
69083;SDS011;56185;48.526;9.044;2022-10-17T09:49:13;6.20;;;2.30;;
69083;SDS011;56185;48.526;9.044;2022-10-17T09:51:42;6.32;;;2.00;;
69083;SDS011;56185;48.526;9.044;2022-10-17T09:54:18;5.03;;;2.35;;
69083;SDS011;56185;48.526;9.044;2022-10-17T09:56:56;3.72;;;2.17;;
69083;SDS011;56185;48.526;9.044;2022-10-17T09:59:37;5.03;;;2.17;;
69083;SDS011;56185;48.526;9.044;2022-10-17T10:07:26;4.53;;;2.30;;
69083;SDS011;56185;48.526;9.044;2022-10-17T10:09:53;8.95;;;2.20;;
69083;SDS011;56185;48.526;9.044;2022-10-17T10:12:20;4.40;;;2.05;;
69083;SDS011;56185;48.526;9.044;2022-10-17T10:14:47;4.05;;;2.08;;
69083;SDS011;56185;48.526;9.044;2022-10-17T10:20:23;5.63;;;2.00;;
69083;SDS011;56185;48.526;9.044;2022-10-17T10:23:11;6.50;;;1.88;;
69083;SDS011;56185;48.526;9.044;2022-10-17T10:25:47;3.17;;;2.03;;
69083;SDS011;56185;48.526;9.044;2022-10-17T10:28:16;3.58;;;1.83;;
69083;SDS011;56185;48.526;9.044;2022-10-17T10:30:44;3.28;;;1.88;;
69083;SDS011;56185;48.526;9.044;2022-10-17T10:33:11;4.38;;;1.95;;
69083;SDS011;56185;48.526;9.044;2022-10-17T10:35:37;3.70;;;1.73;;
69083;SDS011;56185;48.526;9.044;2022-10-17T10:38:03;4.63;;;2.13;;
69083;SDS011;56185;48.526;9.044;2022-10-17T10:40:47;5.57;;;2.05;;
69083;SDS011;56185;48.526;9.044;2022-10-17T10:46:14;5.00;;;1.90;;
69083;SDS011;56185;48.526;9.044;2022-10-17T10:48:49;4.05;;;2.00;;
69083;SDS011;56185;48.526;9.044;2022-10-17T10:51:26;3.88;;;1.80;;
69083;SDS011;56185;48.526;9.044;2022-10-17T10:56:40;6.50;;;2.08;;
69083;SDS011;56185;48.526;9.044;2022-10-17T10:59:09;5.00;;;2.17;;
69083;SDS011;56185;48.526;9.044;2022-10-17T11:07:09;6.25;;;2.20;;
69083;SDS011;56185;48.526;9.044;2022-10-17T11:09:44;3.72;;;1.98;;
69083;SDS011;56185;48.526;9.044;2022-10-17T11:12:19;3.40;;;1.85;;
69083;SDS011;56185;48.526;9.044;2022-10-17T11:14:58;5.22;;;1.83;;
69083;SDS011;56185;48.526;9.044;2022-10-17T11:17:33;2.97;;;1.60;;
69083;SDS011;56185;48.526;9.044;2022-10-17T11:20:21;5.15;;;1.95;;
69083;SDS011;56185;48.526;9.044;2022-10-17T11:23:02;1.90;;;1.50;;
69083;SDS011;56185;48.526;9.044;2022-10-17T11:25:37;3.17;;;1.98;;
69083;SDS011;56185;48.526;9.044;2022-10-17T11:28:10;4.65;;;2.00;;
69083;SDS011;56185;48.526;9.044;2022-10-17T11:33:28;5.38;;;1.77;;
69083;SDS011;56185;48.526;9.044;2022-10-17T11:36:05;4.40;;;1.83;;
69083;SDS011;56185;48.526;9.044;2022-10-17T11:38:41;5.82;;;1.90;;
69083;SDS011;56185;48.526;9.044;2022-10-17T11:41:14;5.63;;;2.00;;
69083;SDS011;56185;48.526;9.044;2022-10-17T11:47:03;3.57;;;1.90;;
69083;SDS011;56185;48.526;9.044;2022-10-17T11:49:35;6.82;;;1.95;;
69083;SDS011;56185;48.526;9.044;2022-10-17T11:54:48;3.33;;;1.75;;
69083;SDS011;56185;48.526;9.044;2022-10-17T12:10:49;6.57;;;1.50;;
69083;SDS011;56185;48.526;9.044;2022-10-17T12:16:42;5.55;;;1.65;;
69083;SDS011;56185;48.526;9.044;2022-10-17T12:18:42;3.28;;;1.50;;
69083;SDS011;56185;48.526;9.044;2022-10-17T12:21:08;3.88;;;1.40;;
69083;SDS011;56185;48.526;9.044;2022-10-17T12:23:33;9.43;;;1.70;;
69083;SDS011;56185;48.526;9.044;2022-10-17T12:25:59;5.50;;;1.60;;
69083;SDS011;56185;48.526;9.044;2022-10-17T12:30:58;4.72;;;1.20;;
69083;SDS011;56185;48.526;9.044;2022-10-17T12:36:41;1.85;;;1.10;;
69083;SDS011;56185;48.526;9.044;2022-10-17T12:49:21;2.60;;;1.00;;
69083;SDS011;56185;48.526;9.044;2022-10-17T12:57:30;6.07;;;1.10;;
69083;SDS011;56185;48.526;9.044;2022-10-17T13:00:00;2.65;;;0.90;;
69083;SDS011;56185;48.526;9.044;2022-10-17T13:02:29;2.58;;;1.08;;
69083;SDS011;56185;48.526;9.044;2022-10-17T13:05:03;3.40;;;0.93;;
69083;SDS011;56185;48.526;9.044;2022-10-17T13:07:31;2.80;;;0.85;;
69083;SDS011;56185;48.526;9.044;2022-10-17T13:09:58;5.05;;;1.40;;
69083;SDS011;56185;48.526;9.044;2022-10-17T13:12:24;2.13;;;0.80;;
69083;SDS011;56185;48.526;9.044;2022-10-17T13:14:50;3.90;;;1.00;;
69083;SDS011;56185;48.526;9.044;2022-10-17T13:17:22;3.53;;;1.08;;
69083;SDS011;56185;48.526;9.044;2022-10-17T13:19:49;2.78;;;0.90;;
69083;SDS011;56185;48.526;9.044;2022-10-17T13:22:19;5.10;;;1.10;;
69083;SDS011;56185;48.526;9.044;2022-10-17T13:24:46;5.20;;;1.10;;
69083;SDS011;56185;48.526;9.044;2022-10-17T13:27:29;4.25;;;1.00;;
69083;SDS011;56185;48.526;9.044;2022-10-17T13:29:57;3.80;;;1.10;;
69083;SDS011;56185;48.526;9.044;2022-10-17T13:32:25;2.75;;;0.93;;
69083;SDS011;56185;48.526;9.044;2022-10-17T13:37:29;3.00;;;0.90;;
69083;SDS011;56185;48.526;9.044;2022-10-17T13:39:54;2.87;;;1.00;;
69083;SDS011;56185;48.526;9.044;2022-10-17T13:42:24;3.63;;;1.00;;
69083;SDS011;56185;48.526;9.044;2022-10-17T13:44:52;3.83;;;1.23;;
69083;SDS011;56185;48.526;9.044;2022-10-17T13:47:25;3.80;;;1.00;;
69083;SDS011;56185;48.526;9.044;2022-10-17T13:49:52;3.38;;;1.05;;
69083;SDS011;56185;48.526;9.044;2022-10-17T13:52:19;2.13;;;1.10;;
69083;SDS011;56185;48.526;9.044;2022-10-17T13:54:47;3.42;;;1.25;;
69083;SDS011;56185;48.526;9.044;2022-10-17T13:57:32;7.13;;;1.45;;
69083;SDS011;56185;48.526;9.044;2022-10-17T13:59:58;4.47;;;1.05;;
69083;SDS011;56185;48.526;9.044;2022-10-17T14:02:27;3.38;;;1.05;;
69083;SDS011;56185;48.526;9.044;2022-10-17T14:05:10;3.20;;;1.30;;
69083;SDS011;56185;48.526;9.044;2022-10-17T14:07:51;3.80;;;1.10;;
69083;SDS011;56185;48.526;9.044;2022-10-17T14:10:22;2.72;;;1.00;;
69083;SDS011;56185;48.526;9.044;2022-10-17T14:12:59;2.03;;;1.02;;
69083;SDS011;56185;48.526;9.044;2022-10-17T14:15:26;4.30;;;1.17;;
69083;SDS011;56185;48.526;9.044;2022-10-17T14:17:58;2.60;;;1.20;;
69083;SDS011;56185;48.526;9.044;2022-10-17T14:20:26;6.80;;;1.30;;
69083;SDS011;56185;48.526;9.044;2022-10-17T14:22:51;3.55;;;1.15;;
69083;SDS011;56185;48.526;9.044;2022-10-17T14:25:26;4.13;;;1.40;;
69083;SDS011;56185;48.526;9.044;2022-10-17T14:27:56;2.38;;;1.20;;
69083;SDS011;56185;48.526;9.044;2022-10-17T14:30:38;2.75;;;1.10;;
69083;SDS011;56185;48.526;9.044;2022-10-17T14:33:07;4.22;;;1.30;;
69083;SDS011;56185;48.526;9.044;2022-10-17T14:35:37;3.05;;;1.10;;
69083;SDS011;56185;48.526;9.044;2022-10-17T14:38:03;2.70;;;1.00;;
69083;SDS011;56185;48.526;9.044;2022-10-17T14:40:31;5.90;;;1.17;;
69083;SDS011;56185;48.526;9.044;2022-10-17T14:42:58;2.78;;;1.20;;
69083;SDS011;56185;48.526;9.044;2022-10-17T14:50:30;5.07;;;1.25;;
69083;SDS011;56185;48.526;9.044;2022-10-17T14:55:53;4.45;;;1.40;;
69083;SDS011;56185;48.526;9.044;2022-10-17T14:58:35;4.43;;;1.10;;
69083;SDS011;56185;48.526;9.044;2022-10-17T15:01:01;4.63;;;1.17;;
69083;SDS011;56185;48.526;9.044;2022-10-17T15:03:26;4.85;;;1.10;;
69083;SDS011;56185;48.526;9.044;2022-10-17T15:05:54;4.15;;;1.25;;
69083;SDS011;56185;48.526;9.044;2022-10-17T15:08:33;2.88;;;1.30;;
69083;SDS011;56185;48.526;9.044;2022-10-17T15:11:05;3.35;;;1.20;;
69083;SDS011;56185;48.526;9.044;2022-10-17T15:13:33;3.83;;;1.30;;
69083;SDS011;56185;48.526;9.044;2022-10-17T15:16:01;5.20;;;1.20;;
69083;SDS011;56185;48.526;9.044;2022-10-17T15:18:30;4.68;;;1.23;;
69083;SDS011;56185;48.526;9.044;2022-10-17T15:21:07;3.00;;;1.20;;
69083;SDS011;56185;48.526;9.044;2022-10-17T15:23:39;3.60;;;1.27;;
69083;SDS011;56185;48.526;9.044;2022-10-17T15:26:10;2.20;;;1.20;;
69083;SDS011;56185;48.526;9.044;2022-10-17T15:28:37;4.97;;;1.10;;
69083;SDS011;56185;48.526;9.044;2022-10-17T15:31:02;6.20;;;1.10;;
69083;SDS011;56185;48.526;9.044;2022-10-17T15:36:32;2.10;;;1.20;;
69083;SDS011;56185;48.526;9.044;2022-10-17T15:39:02;2.20;;;1.27;;
69083;SDS011;56185;48.526;9.044;2022-10-17T15:41:28;4.43;;;1.50;;
69083;SDS011;56185;48.526;9.044;2022-10-17T15:43:55;6.50;;;1.80;;
69083;SDS011;56185;48.526;9.044;2022-10-17T15:46:22;6.20;;;1.40;;
69083;SDS011;56185;48.526;9.044;2022-10-17T15:48:49;2.80;;;1.60;;
69083;SDS011;56185;48.526;9.044;2022-10-17T15:51:15;5.43;;;1.45;;
69083;SDS011;56185;48.526;9.044;2022-10-17T15:53:41;8.18;;;1.50;;
69083;SDS011;56185;48.526;9.044;2022-10-17T15:56:07;3.70;;;1.60;;
69083;SDS011;56185;48.526;9.044;2022-10-17T15:58:39;5.93;;;1.63;;
69083;SDS011;56185;48.526;9.044;2022-10-17T16:01:04;5.28;;;1.60;;
69083;SDS011;56185;48.526;9.044;2022-10-17T16:03:30;3.75;;;1.58;;
69083;SDS011;56185;48.526;9.044;2022-10-17T16:05:56;4.70;;;1.80;;
69083;SDS011;56185;48.526;9.044;2022-10-17T16:08:21;3.50;;;1.80;;
69083;SDS011;56185;48.526;9.044;2022-10-17T16:10:47;5.38;;;1.52;;
69083;SDS011;56185;48.526;9.044;2022-10-17T16:13:16;4.75;;;1.60;;
69083;SDS011;56185;48.526;9.044;2022-10-17T16:15:43;5.25;;;1.77;;
69083;SDS011;56185;48.526;9.044;2022-10-17T16:18:09;6.93;;;1.40;;
69083;SDS011;56185;48.526;9.044;2022-10-17T16:20:34;4.97;;;1.75;;
69083;SDS011;56185;48.526;9.044;2022-10-17T16:22:59;4.83;;;1.70;;
69083;SDS011;56185;48.526;9.044;2022-10-17T16:25:26;3.80;;;1.67;;
69083;SDS011;56185;48.526;9.044;2022-10-17T16:27:53;2.25;;;1.50;;
69083;SDS011;56185;48.526;9.044;2022-10-17T16:30:25;3.88;;;1.67;;
69083;SDS011;56185;48.526;9.044;2022-10-17T16:32:53;6.55;;;1.80;;
69083;SDS011;56185;48.526;9.044;2022-10-17T16:35:20;3.22;;;1.58;;
69083;SDS011;56185;48.526;9.044;2022-10-17T16:37:56;7.32;;;1.80;;
69083;SDS011;56185;48.526;9.044;2022-10-17T16:40:41;5.90;;;2.00;;
69083;SDS011;56185;48.526;9.044;2022-10-17T16:43:09;6.72;;;1.83;;
69083;SDS011;56185;48.526;9.044;2022-10-17T16:45:36;3.97;;;2.10;;
69083;SDS011;56185;48.526;9.044;2022-10-17T16:48:01;6.60;;;1.80;;
69083;SDS011;56185;48.526;9.044;2022-10-17T16:50:26;6.88;;;2.10;;
69083;SDS011;56185;48.526;9.044;2022-10-17T16:52:51;4.40;;;1.93;;
69083;SDS011;56185;48.526;9.044;2022-10-17T16:55:17;4.13;;;1.80;;
69083;SDS011;56185;48.526;9.044;2022-10-17T16:57:42;4.63;;;1.65;;
69083;SDS011;56185;48.526;9.044;2022-10-17T17:00:08;3.92;;;1.88;;
69083;SDS011;56185;48.526;9.044;2022-10-17T17:02:35;5.00;;;1.70;;
69083;SDS011;56185;48.526;9.044;2022-10-17T17:05:00;4.18;;;1.75;;
69083;SDS011;56185;48.526;9.044;2022-10-17T17:07:26;8.47;;;2.13;;
69083;SDS011;56185;48.526;9.044;2022-10-17T17:09:51;6.97;;;1.85;;
69083;SDS011;56185;48.526;9.044;2022-10-17T17:12:16;3.60;;;1.70;;
69083;SDS011;56185;48.526;9.044;2022-10-17T17:14:42;7.70;;;1.90;;
69083;SDS011;56185;48.526;9.044;2022-10-17T17:17:07;3.57;;;1.83;;
69083;SDS011;56185;48.526;9.044;2022-10-17T17:19:32;2.95;;;1.60;;
69083;SDS011;56185;48.526;9.044;2022-10-17T17:21:57;7.73;;;1.90;;
69083;SDS011;56185;48.526;9.044;2022-10-17T17:24:23;3.77;;;1.73;;
69083;SDS011;56185;48.526;9.044;2022-10-17T17:29:29;6.78;;;2.10;;
69083;SDS011;56185;48.526;9.044;2022-10-17T17:31:54;8.90;;;2.20;;